Time;durP1;ratioP1;P1;durP2;ratioP2;P2;SDS_P1;SDS_P2;PMS_P1;PMS_P2;Temp;Humidity;BMP_temperature;BMP_pressure;BME280_temperature;BME280_humidity;BME280_pressure;Samples;Min_cycle;Max_cycle;Signal;HPM_P1;HPM_P2
2023/10/05 00:02:08;;;;;;;0.10;0.10;;;;;;;8.99;100.00;97400.13;5025972;28;20069;-85
2023/10/05 00:04:53;;;;;;;0.10;0.10;;;;;;;9.01;100.00;97395.38;5009143;28;20156;-84
2023/10/05 00:07:39;;;;;;;0.10;0.10;;;;;;;8.94;100.00;97396.25;5024530;28;20037;-85
2023/10/05 00:10:25;;;;;;;0.10;0.10;;;;;;;8.96;100.00;97408.59;5022455;28;20045;-84
2023/10/05 00:13:12;;;;;;;0.10;0.10;;;;;;;8.94;100.00;97398.09;5021892;28;20778;-83
2023/10/05 00:15:58;;;;;;;0.10;0.10;;;;;;;8.89;100.00;97393.41;5022037;28;20681;-82
2023/10/05 00:18:44;;;;;;;0.10;0.10;;;;;;;8.96;100.00;97385.38;5024020;28;20544;-85
2023/10/05 00:21:35;;;;;;;0.10;0.10;;;;;;;8.92;100.00;97381.47;5021520;28;20041;-87
2023/10/05 00:24:37;;;;;;;0.10;0.10;;;;;;;8.89;100.00;97381.94;5022982;28;20195;-84
2023/10/05 00:27:25;;;;;;;0.10;0.10;;;;;;;8.85;100.00;97380.69;5019175;28;20045;-86
2023/10/05 00:30:16;;;;;;;0.10;0.10;;;;;;;8.87;100.00;97382.16;5021155;28;20041;-83
2023/10/05 00:33:04;;;;;;;0.10;0.10;;;;;;;8.83;100.00;97383.59;5025216;28;20085;-85
2023/10/05 00:35:52;;;;;;;0.10;0.10;;;;;;;8.86;100.00;97382.34;5024139;28;20851;-87
2023/10/05 00:38:40;;;;;;;0.10;0.10;;;;;;;8.84;100.00;97379.88;5009813;28;20054;-87
2023/10/05 00:41:28;;;;;;;0.10;0.10;;;;;;;8.86;100.00;97371.66;5022850;28;20048;-84
2023/10/05 00:44:14;;;;;;;0.10;0.10;;;;;;;8.88;100.00;97380.28;5008744;28;20047;-83
2023/10/05 00:47:00;;;;;;;0.10;0.10;;;;;;;9.07;100.00;97379.31;5023110;28;20049;-85
2023/10/05 00:49:51;;;;;;;0.10;0.10;;;;;;;9.25;100.00;97372.41;5027933;28;20036;-84
2023/10/05 00:52:43;;;;;;;0.10;0.10;;;;;;;9.44;100.00;97371.44;5025734;28;20041;-84
2023/10/05 00:55:29;;;;;;;0.10;0.10;;;;;;;9.59;100.00;97379.94;5022445;28;20142;-82
2023/10/05 00:58:16;;;;;;;0.20;0.20;;;;;;;9.75;100.00;97368.69;5022663;28;20037;-84
2023/10/05 01:01:05;;;;;;;0.10;0.10;;;;;;;9.77;100.00;97377.28;5022914;28;20725;-85
2023/10/05 01:07:21;;;;;;;0.10;0.10;;;;;;;9.86;100.00;97358.28;4959106;28;20108;-85
2023/10/05 01:12:54;;;;;;;0.10;0.10;;;;;;;9.91;100.00;97350.44;5011295;28;20106;-86
2023/10/05 01:15:41;;;;;;;0.10;0.10;;;;;;;9.99;100.00;97350.94;5023739;28;20048;-85
2023/10/05 01:18:29;;;;;;;0.10;0.10;;;;;;;10.01;100.00;97351.53;5021858;28;20033;-84
2023/10/05 01:21:17;;;;;;;0.10;0.10;;;;;;;9.95;100.00;97354.28;5019776;28;20056;-85
2023/10/05 01:24:04;;;;;;;0.10;0.10;;;;;;;9.85;100.00;97341.44;5018446;28;20516;-86
2023/10/05 01:26:50;;;;;;;0.10;0.10;;;;;;;9.90;100.00;97349.63;5019317;28;20139;-85
2023/10/05 01:29:36;;;;;;;0.10;0.10;;;;;;;9.83;100.00;97350.72;5019127;28;20123;-84
2023/10/05 01:32:22;;;;;;;0.10;0.10;;;;;;;9.80;100.00;97354.63;5004930;28;20057;-83
2023/10/05 01:35:09;;;;;;;0.10;0.10;;;;;;;9.88;100.00;97359.69;5018521;28;20045;-85
2023/10/05 01:37:54;;;;;;;0.10;0.10;;;;;;;9.73;100.00;97340.56;5022518;28;20049;-86
2023/10/05 01:40:47;;;;;;;0.10;0.10;;;;;;;9.63;100.00;97343.72;5009207;28;20041;-84
2023/10/05 01:43:37;;;;;;;0.10;0.10;;;;;;;9.55;100.00;97346.66;5021003;28;20666;-86
2023/10/05 01:46:23;;;;;;;0.10;0.10;;;;;;;9.65;100.00;97349.66;5021525;28;20765;-88
2023/10/05 01:49:09;;;;;;;0.10;0.10;;;;;;;9.56;100.00;97361.66;5018774;28;20067;-87
2023/10/05 01:51:56;;;;;;;0.10;0.10;;;;;;;9.55;100.00;97354.69;5019981;28;20052;-84
2023/10/05 01:54:44;;;;;;;0.10;0.10;;;;;;;9.43;100.00;97351.13;5019641;28;20053;-84
2023/10/05 01:57:30;;;;;;;0.08;0.08;;;;;;;9.46;100.00;97348.00;5003178;28;20053;-85
2023/10/05 02:00:23;;;;;;;0.10;0.10;;;;;;;9.34;100.00;97347.91;5006714;28;20055;-85
2023/10/05 02:03:12;;;;;;;0.10;0.10;;;;;;;9.12;100.00;97352.00;5023694;28;21427;-84
2023/10/05 02:06:05;;;;;;;0.10;0.10;;;;;;;9.18;100.00;97354.63;5023868;28;20056;-82
2023/10/05 02:08:54;;;;;;;0.10;0.10;;;;;;;9.13;100.00;97361.63;5022936;28;20291;-83
2023/10/05 02:11:41;;;;;;;0.10;0.10;;;;;;;9.15;100.00;97357.69;5025755;28;20099;-83
2023/10/05 02:14:30;;;;;;;0.10;0.10;;;;;;;9.38;100.00;97365.13;5013245;28;20064;-84
2023/10/05 02:17:19;;;;;;;0.10;0.10;;;;;;;9.47;100.00;97371.00;5007327;28;20056;-84
2023/10/05 02:20:08;;;;;;;0.10;0.10;;;;;;;9.66;100.00;97370.00;5015106;28;20116;-84
2023/10/05 02:22:54;;;;;;;0.10;0.10;;;;;;;9.63;100.00;97373.09;5024172;28;20136;-82
2023/10/05 02:25:40;;;;;;;0.10;0.10;;;;;;;9.82;100.00;97367.81;5016173;28;20045;-83
2023/10/05 02:28:26;;;;;;;0.00;0.00;;;;;;;9.75;100.00;97366.00;5021123;28;20857;-83
2023/10/05 02:31:13;;;;;;;0.10;0.10;;;;;;;9.60;100.00;97370.88;5008748;28;20055;-82
2023/10/05 02:33:59;;;;;;;0.10;0.10;;;;;;;9.47;100.00;97365.66;5023763;28;20045;-83
2023/10/05 02:36:45;;;;;;;0.10;0.10;;;;;;;9.39;100.00;97358.72;5024813;28;20124;-86
2023/10/05 02:39:34;;;;;;;0.10;0.10;;;;;;;9.37;100.00;97371.50;5007910;28;20045;-83
2023/10/05 02:42:22;;;;;;;0.10;0.10;;;;;;;9.34;100.00;97371.09;5025893;28;20041;-84
2023/10/05 02:45:11;;;;;;;0.10;0.10;;;;;;;9.42;100.00;97370.84;5021302;28;20861;-85
2023/10/05 02:47:57;;;;;;;0.10;0.10;;;;;;;9.56;100.00;97358.97;5007896;28;20057;-83
2023/10/05 02:50:45;;;;;;;0.10;0.10;;;;;;;9.47;100.00;97365.66;5022987;28;20069;-82
2023/10/05 02:53:41;;;;;;;0.10;0.10;;;;;;;9.42;100.00;97369.00;5024233;28;20041;-85
2023/10/05 02:56:27;;;;;;;0.10;0.10;;;;;;;9.34;100.00;97369.28;5009667;28;20439;-83
2023/10/05 02:59:15;;;;;;;0.10;0.10;;;;;;;9.28;100.00;97370.13;5024187;28;20725;-85
2023/10/05 03:02:06;;;;;;;0.10;0.10;;;;;;;9.36;100.00;97369.06;5042472;28;20033;-82
2023/10/05 03:04:57;;;;;;;0.10;0.10;;;;;;;9.41;100.00;97378.03;5037849;28;20254;-82
2023/10/05 03:07:48;;;;;;;0.10;0.10;;;;;;;9.23;100.00;97361.94;5045821;28;20044;-85
2023/10/05 03:10:34;;;;;;;0.10;0.10;;;;;;;9.16;100.00;97366.53;5029476;28;20128;-85
2023/10/05 03:13:19;;;;;;;0.10;0.10;;;;;;;9.06;100.00;97368.88;5026528;28;20056;-85
2023/10/05 03:16:10;;;;;;;0.10;0.10;;;;;;;9.11;100.00;97361.03;5025582;28;20053;-85
2023/10/05 03:19:00;;;;;;;0.10;0.10;;;;;;;9.03;100.00;97354.13;5009231;28;20053;-84
2023/10/05 03:21:47;;;;;;;0.10;0.10;;;;;;;9.10;100.00;97367.38;5022944;28;20049;-82
2023/10/05 03:24:37;;;;;;;0.10;0.10;;;;;;;9.17;100.00;97355.63;5023202;28;20115;-85
2023/10/05 03:27:25;;;;;;;0.10;0.10;;;;;;;9.15;100.00;97347.00;5020817;28;20748;-86
2023/10/05 03:30:14;;;;;;;0.10;0.10;;;;;;;9.17;100.00;97344.94;5021261;28;20052;-82
2023/10/05 03:33:01;;;;;;;0.10;0.10;;;;;;;9.24;100.00;97338.72;5020924;28;20044;-83
2023/10/05 03:35:47;;;;;;;0.10;0.10;;;;;;;9.31;100.00;97344.84;5022300;28;20569;-84
2023/10/05 03:38:35;;;;;;;0.10;0.10;;;;;;;9.40;100.00;97332.84;5006949;28;20149;-85
2023/10/05 03:41:25;;;;;;;0.10;0.10;;;;;;;9.42;100.00;97338.81;5022845;28;20109;-86
2023/10/05 03:44:15;;;;;;;;;;;;;;;9.42;100.00;97342.28;5009769;28;20044;-86
2023/10/05 03:47:02;;;;;;;0.10;0.10;;;;;;;9.48;100.00;97341.38;5021566;28;20025;-84
2023/10/05 03:49:55;;;;;;;0.10;0.10;;;;;;;9.56;100.00;97352.81;4998252;28;20767;-84
2023/10/05 03:52:44;;;;;;;0.10;0.10;;;;;;;9.64;100.00;97353.34;5022177;28;20096;-85
2023/10/05 03:55:32;;;;;;;0.10;0.10;;;;;;;9.68;100.00;97354.56;5021046;28;20126;-83
2023/10/05 03:58:18;;;;;;;0.10;0.10;;;;;;;9.68;100.00;97346.53;5027932;28;20291;-83
2023/10/05 04:01:04;;;;;;;0.10;0.10;;;;;;;9.70;100.00;97355.16;5018364;28;20080;-86
2023/10/05 04:03:50;;;;;;;0.10;0.10;;;;;;;9.69;100.00;97347.38;5009695;28;20151;-86
2023/10/05 04:06:36;;;;;;;0.10;0.10;;;;;;;9.69;100.00;97340.16;5024443;28;20057;-85
2023/10/05 04:09:22;;;;;;;0.10;0.10;;;;;;;9.69;100.00;97334.00;5010462;28;20041;-86
2023/10/05 04:12:10;;;;;;;0.10;0.10;;;;;;;9.69;100.00;97323.31;5024280;28;20037;-83
2023/10/05 04:14:57;;;;;;;0.10;0.10;;;;;;;9.73;100.00;97327.19;5023673;28;20296;-86
2023/10/05 04:17:44;;;;;;;0.10;0.10;;;;;;;9.70;100.00;97319.59;5022925;28;20041;-87
2023/10/05 04:20:29;;;;;;;0.10;0.10;;;;;;;9.70;100.00;97322.28;5024210;28;20120;-85
2023/10/05 04:23:20;;;;;;;0.10;0.10;;;;;;;9.71;100.00;97324.72;5022544;28;20134;-85
2023/10/05 04:26:09;;;;;;;0.10;0.10;;;;;;;9.69;100.00;97318.78;5023909;28;20045;-86
2023/10/05 04:28:57;;;;;;;0.10;0.10;;;;;;;9.70;100.00;97331.09;5022238;28;20049;-85
2023/10/05 04:31:48;;;;;;;0.10;0.10;;;;;;;9.73;100.00;97329.88;5022445;28;20073;-85
2023/10/05 04:34:34;;;;;;;0.10;0.10;;;;;;;9.76;100.00;97321.38;5023648;28;20044;-84
2023/10/05 04:37:20;;;;;;;0.10;0.10;;;;;;;9.74;100.00;97337.66;5021687;28;20057;-83
2023/10/05 04:40:10;;;;;;;0.10;0.10;;;;;;;9.74;100.00;97332.31;5023268;28;20096;-86
2023/10/05 04:42:59;;;;;;;0.10;0.10;;;;;;;9.72;100.00;97328.19;5021507;28;20129;-83
2023/10/05 04:45:45;;;;;;;0.10;0.10;;;;;;;9.71;100.00;97322.03;5023899;28;20049;-85
2023/10/05 04:48:31;;;;;;;0.10;0.10;;;;;;;9.71;100.00;97332.72;5022983;28;20138;-84
2023/10/05 04:51:20;;;;;;;0.10;0.10;;;;;;;9.67;100.00;97330.75;5021460;28;20116;-85
2023/10/05 04:54:10;;;;;;;0.10;0.10;;;;;;;9.65;100.00;97330.13;5023968;28;20056;-84
2023/10/05 04:57:12;;;;;;;0.10;0.10;;;;;;;9.66;100.00;97334.44;5021089;28;20599;-87
2023/10/05 05:00:49;;;;;;;0.10;0.10;;;;;;;9.63;100.00;97333.03;5022080;28;20041;-84
2023/10/05 05:06:11;;;;;;;0.10;0.10;;;;;;;9.62;100.00;97336.72;5022690;28;20045;-84
2023/10/05 05:08:58;;;;;;;0.10;0.10;;;;;;;9.60;100.00;97328.13;5013676;28;20886;-84
2023/10/05 05:11:44;;;;;;;0.10;0.10;;;;;;;9.58;100.00;97334.75;5022379;28;20037;-86
2023/10/05 05:14:33;;;;;;;0.10;0.10;;;;;;;9.57;100.00;97331.25;5022927;28;20045;-84
2023/10/05 05:17:21;;;;;;;0.10;0.10;;;;;;;9.55;100.00;97335.97;5023438;28;20114;-84
2023/10/05 05:20:11;;;;;;;0.10;0.10;;;;;;;9.53;100.00;97327.38;5021112;28;20118;-84
2023/10/05 05:22:57;;;;;;;0.10;0.10;;;;;;;9.46;100.00;97324.75;5022833;28;20049;-87
2023/10/05 05:25:44;;;;;;;0.20;0.20;;;;;;;9.45;100.00;97325.00;5022859;28;20053;-89
2023/10/05 05:28:30;;;;;;;0.10;0.10;;;;;;;9.34;100.00;97331.88;5022520;28;20048;-86
2023/10/05 05:31:16;;;;;;;0.10;0.10;;;;;;;9.29;100.00;97329.03;5019079;28;20041;-85
2023/10/05 05:34:02;;;;;;;0.10;0.10;;;;;;;9.18;100.00;97325.25;5023409;28;20040;-86
2023/10/05 05:36:52;;;;;;;0.10;0.10;;;;;;;9.16;100.00;97329.13;5028208;28;20088;-87
2023/10/05 05:39:40;;;;;;;0.10;0.10;;;;;;;9.18;100.00;97324.38;5027647;28;20503;-85
2023/10/05 05:42:30;;;;;;;0.10;0.10;;;;;;;9.21;100.00;97327.47;5027443;28;20543;-86
2023/10/05 05:45:16;;;;;;;0.10;0.10;;;;;;;9.17;100.00;97328.09;5023009;28;20045;-87
2023/10/05 05:48:13;;;;;;;0.10;0.10;;;;;;;9.20;100.00;97325.00;5025841;28;20137;-85
2023/10/05 05:51:05;;;;;;;0.10;0.10;;;;;;;9.23;100.00;97323.75;5026761;28;20180;-87
2023/10/05 05:53:52;;;;;;;0.10;0.10;;;;;;;9.27;100.00;97324.97;5026559;28;20572;-86
2023/10/05 05:56:38;;;;;;;0.10;0.10;;;;;;;9.29;100.00;97328.22;5025402;28;20757;-86
2023/10/05 05:59:24;;;;;;;0.10;0.10;;;;;;;9.35;100.00;97335.38;5026821;28;20036;-87
2023/10/05 06:02:10;;;;;;;0.10;0.10;;;;;;;9.40;100.00;97335.50;5024538;28;20156;-88
2023/10/05 06:04:56;;;;;;;0.10;0.10;;;;;;;9.47;100.00;97336.25;5025017;28;20596;-86
2023/10/05 06:07:43;;;;;;;0.10;0.10;;;;;;;9.52;100.00;97325.75;5028336;28;20558;-87
2023/10/05 06:10:30;;;;;;;0.10;0.10;;;;;;;9.63;100.00;97334.88;5026148;28;20120;-87
2023/10/05 06:13:18;;;;;;;0.10;0.10;;;;;;;9.67;100.00;97334.22;5025443;28;20044;-88
2023/10/05 06:16:05;;;;;;;0.10;0.10;;;;;;;9.67;100.00;97336.91;5024297;28;20110;-88
2023/10/05 06:18:51;;;;;;;0.10;0.10;;;;;;;9.76;100.00;97332.91;5024253;28;20051;-84
2023/10/05 06:21:37;;;;;;;0.10;0.10;;;;;;;9.83;100.00;97332.81;5026786;28;20041;-84
2023/10/05 06:24:24;;;;;;;0.13;0.13;;;;;;;9.85;100.00;97336.09;5040174;28;20564;-83
2023/10/05 06:27:11;;;;;;;0.10;0.10;;;;;;;9.90;100.00;97341.59;5042525;28;20037;-87
2023/10/05 06:29:57;;;;;;;0.10;0.10;;;;;;;9.89;100.00;97331.94;5026614;28;20045;-86
2023/10/05 06:32:43;;;;;;;0.10;0.10;;;;;;;9.93;100.00;97324.28;5024304;28;20049;-85
2023/10/05 06:35:29;;;;;;;0.10;0.10;;;;;;;9.92;100.00;97328.81;5026397;28;20084;-86
2023/10/05 06:38:18;;;;;;;0.10;0.10;;;;;;;9.94;100.00;97323.25;5021931;28;20729;-85
2023/10/05 06:41:04;;;;;;;0.10;0.10;;;;;;;10.01;100.00;97329.31;5023764;28;20079;-85
2023/10/05 06:43:50;;;;;;;0.20;0.20;;;;;;;10.02;100.00;97331.78;5026539;28;20080;-86
2023/10/05 06:46:42;;;;;;;0.10;0.10;;;;;;;10.10;100.00;97332.50;5024188;28;20112;-85
2023/10/05 06:49:28;;;;;;;0.10;0.10;;;;;;;10.14;100.00;97345.22;5006757;28;20041;-85
2023/10/05 06:52:14;;;;;;;0.10;0.10;;;;;;;10.25;100.00;97347.16;5024757;28;20044;-87
2023/10/05 06:55:07;;;;;;;0.10;0.10;;;;;;;10.27;100.00;97352.28;5024775;28;20053;-84
2023/10/05 06:57:53;;;;;;;0.10;0.10;;;;;;;10.38;100.00;97366.78;5022994;28;20550;-86
2023/10/05 07:00:39;;;;;;;0.10;0.10;;;;;;;10.39;100.00;97358.53;5023536;28;20687;-85
2023/10/05 07:03:25;;;;;;;0.10;0.10;;;;;;;10.39;100.00;97355.84;5023984;28;20060;-83
2023/10/05 07:06:11;;;;;;;0.10;0.10;;;;;;;10.51;100.00;97361.28;5024725;28;20037;-84
2023/10/05 07:08:59;;;;;;;0.10;0.10;;;;;;;10.50;100.00;97370.31;5029278;28;20049;-86
2023/10/05 07:11:45;;;;;;;0.10;0.10;;;;;;;10.56;100.00;97375.59;5010132;28;20103;-85
2023/10/05 07:14:31;;;;;;;0.10;0.10;;;;;;;10.60;100.00;97375.97;5023776;28;20566;-85
2023/10/05 07:17:17;;;;;;;0.10;0.10;;;;;;;10.67;100.00;97386.59;5021550;28;20101;-87
2023/10/05 07:20:11;;;;;;;0.10;0.10;;;;;;;10.67;100.00;97390.09;5026163;28;20041;-84
2023/10/05 07:22:57;;;;;;;0.10;0.10;;;;;;;10.88;100.00;97384.22;5024124;28;20052;-86
2023/10/05 07:25:43;;;;;;;0.10;0.10;;;;;;;10.93;100.00;97383.53;5021888;28;20783;-85
2023/10/05 07:28:29;;;;;;;0.17;0.17;;;;;;;10.97;100.00;97381.22;5025680;28;20772;-84
2023/10/05 07:31:15;;;;;;;0.10;0.10;;;;;;;10.95;100.00;97369.91;5020746;28;20067;-86
2023/10/05 07:34:02;;;;;;;0.10;0.10;;;;;;;11.12;100.00;97373.56;5023979;28;20072;-86
2023/10/05 07:36:47;;;;;;;0.10;0.10;;;;;;;11.21;100.00;97372.22;5023820;28;20045;-88
2023/10/05 07:39:34;;;;;;;0.10;0.10;;;;;;;11.27;100.00;97384.66;5023451;28;20045;-85
2023/10/05 07:42:20;;;;;;;0.10;0.10;;;;;;;11.32;100.00;97379.44;5023954;28;20048;-85
2023/10/05 07:45:07;;;;;;;0.10;0.10;;;;;;;11.41;100.00;97379.91;5023418;28;20087;-86
2023/10/05 07:47:53;;;;;;;0.10;0.10;;;;;;;11.44;100.00;97382.97;5023371;28;20064;-87
2023/10/05 07:50:41;;;;;;;0.10;0.10;;;;;;;11.50;100.00;97377.72;5023250;28;20529;-84
2023/10/05 07:53:27;;;;;;;0.10;0.10;;;;;;;11.51;100.00;97373.97;5020810;28;20104;-85
2023/10/05 07:56:13;;;;;;;0.10;0.10;;;;;;;11.62;100.00;97374.00;5020293;28;20610;-84
2023/10/05 07:58:59;;;;;;;0.10;0.10;;;;;;;11.75;100.00;97386.38;5021415;28;20757;-86
2023/10/05 08:01:45;;;;;;;0.10;0.10;;;;;;;11.72;100.00;97394.84;5020382;28;20674;-85
2023/10/05 08:04:32;;;;;;;0.10;0.10;;;;;;;11.77;100.00;97402.22;5022480;28;20045;-84
2023/10/05 08:07:18;;;;;;;0.10;0.10;;;;;;;11.78;100.00;97404.66;5007296;28;20044;-83
2023/10/05 08:10:06;;;;;;;0.10;0.10;;;;;;;11.82;100.00;97405.03;5022559;28;20554;-84
2023/10/05 08:12:53;;;;;;;0.10;0.10;;;;;;;11.82;100.00;97405.03;5021338;28;20079;-87
2023/10/05 08:15:38;;;;;;;0.10;0.10;;;;;;;11.88;100.00;97415.66;5025363;28;20043;-85
2023/10/05 08:18:25;;;;;;;0.10;0.10;;;;;;;12.02;100.00;97408.19;5023035;28;20041;-85
2023/10/05 08:21:11;;;;;;;0.10;0.10;;;;;;;12.06;100.00;97421.94;5023728;28;20041;-85
2023/10/05 08:23:57;;;;;;;0.10;0.10;;;;;;;12.12;100.00;97426.38;5021993;28;20060;-84
2023/10/05 08:26:44;;;;;;;0.10;0.10;;;;;;;12.22;100.00;97434.66;5021138;28;20036;-85
2023/10/05 08:29:29;;;;;;;0.10;0.10;;;;;;;12.34;100.00;97440.81;5023407;28;20048;-84
2023/10/05 08:32:16;;;;;;;0.10;0.10;;;;;;;12.46;100.00;97448.84;5022503;28;20053;-83
2023/10/05 08:35:13;;;;;;;0.10;0.10;;;;;;;12.43;100.00;97439.38;5021123;28;20062;-84
2023/10/05 08:37:59;;;;;;;0.10;0.10;;;;;;;12.52;100.00;97429.09;5021329;28;20784;-84
2023/10/05 08:40:45;;;;;;;0.10;0.10;;;;;;;12.52;100.00;97431.78;5020901;28;20044;-83
2023/10/05 08:43:31;;;;;;;0.10;0.10;;;;;;;12.64;100.00;97424.53;5021025;28;20040;-83
2023/10/05 08:46:19;;;;;;;0.10;0.10;;;;;;;12.67;100.00;97429.41;5021129;28;20498;-83
2023/10/05 08:49:07;;;;;;;0.10;0.10;;;;;;;12.65;100.00;97430.72;5021346;28;20051;-83
2023/10/05 08:51:53;;;;;;;0.10;0.10;;;;;;;12.79;100.00;97424.00;5021646;28;20056;-83
2023/10/05 08:54:40;;;;;;;0.15;0.15;;;;;;;12.98;100.00;97417.38;5023145;28;20060;-83
2023/10/05 08:57:26;;;;;;;0.13;0.13;;;;;;;13.20;100.00;97422.13;5015947;28;20045;-82
2023/10/05 09:00:14;;;;;;;0.10;0.10;;;;;;;13.48;100.00;97435.53;5020075;28;20144;-83
2023/10/05 09:03:00;;;;;;;0.20;0.20;;;;;;;13.63;100.00;97432.28;5022113;28;20782;-83
2023/10/05 09:06:13;;;;;;;0.10;0.10;;;;;;;13.89;100.00;97442.38;5020905;28;20462;-82
2023/10/05 09:11:51;;;;;;;0.10;0.10;;;;;;;14.08;100.00;97423.25;5024499;28;20111;-83
2023/10/05 09:14:38;;;;;;;0.10;0.10;;;;;;;14.34;100.00;97432.53;5026667;28;20049;-83
2023/10/05 09:17:23;;;;;;;0.10;0.10;;;;;;;14.73;100.00;97434.13;5025248;28;20052;-82
2023/10/05 09:20:23;;;;;;;0.10;0.10;;;;;;;14.70;100.00;97440.00;5026446;28;20083;-82
2023/10/05 09:23:20;;;;;;;0.10;0.10;;;;;;;14.54;100.00;97451.66;5023861;28;20037;-83
2023/10/05 09:26:26;;;;;;;0.10;0.10;;;;;;;14.73;100.00;97436.84;5024699;28;20542;-83
2023/10/05 09:29:22;;;;;;;0.10;0.10;;;;;;;14.46;100.00;97444.81;5024414;28;20041;-83
2023/10/05 09:32:30;;;;;;;0.10;0.10;;;;;;;14.32;100.00;97453.47;5023999;28;20635;-83
2023/10/05 09:35:26;;;;;;;0.10;0.10;;;;;;;14.12;100.00;97451.31;5026788;28;20041;-83
2023/10/05 09:38:21;;;;;;;0.10;0.10;;;;;;;13.93;100.00;97461.53;5025234;28;20136;-83
2023/10/05 09:41:08;;;;;;;0.10;0.10;;;;;;;14.01;100.00;97461.13;5010919;28;20329;-83
2023/10/05 09:44:05;;;;;;;0.10;0.10;;;;;;;13.87;100.00;97465.22;5023500;28;20049;-82
2023/10/05 09:46:51;;;;;;;0.10;0.10;;;;;;;14.09;100.00;97478.75;5039279;28;20033;-83
2023/10/05 09:49:37;;;;;;;0.10;0.10;;;;;;;14.21;100.00;97477.56;5037150;28;20740;-83
2023/10/05 09:52:24;;;;;;;0.10;0.10;;;;;;;14.21;100.00;97472.19;5026889;28;20056;-84
2023/10/05 09:55:13;;;;;;;0.10;0.10;;;;;;;14.30;100.00;97474.44;5026518;28;20045;-83
2023/10/05 09:58:05;;;;;;;0.10;0.10;;;;;;;14.33;100.00;97477.47;5025872;28;20064;-83
2023/10/05 10:00:55;;;;;;;0.10;0.10;;;;;;;14.41;100.00;97474.38;5025543;28;20045;-83
2023/10/05 10:03:45;;;;;;;0.10;0.10;;;;;;;14.64;100.00;97473.34;5024052;28;20046;-84
2023/10/05 10:06:34;;;;;;;0.10;0.10;;;;;;;15.01;100.00;97467.31;5024809;28;20041;-83
2023/10/05 10:09:26;;;;;;;0.10;0.10;;;;;;;15.18;100.00;97472.66;5011940;28;20149;-83
2023/10/05 10:12:25;;;;;;;0.10;0.10;;;;;;;15.32;100.00;97461.19;5024083;28;20041;-83
2023/10/05 10:15:26;;;;;;;0.10;0.10;;;;;;;15.49;100.00;97471.09;5026274;28;20045;-83
2023/10/05 10:18:15;;;;;;;0.10;0.10;;;;;;;15.85;100.00;97478.44;5024793;28;20053;-83
2023/10/05 10:21:09;;;;;;;0.10;0.10;;;;;;;15.72;100.00;97473.50;5022911;28;20742;-83
2023/10/05 10:24:06;;;;;;;0.10;0.10;;;;;;;15.33;100.00;97462.84;5025007;28;20908;-83
2023/10/05 10:27:11;;;;;;;0.10;0.10;;;;;;;15.00;100.00;97479.16;5026963;28;20041;-83
2023/10/05 10:29:58;;;;;;;0.10;0.10;;;;;;;15.09;100.00;97485.75;5025459;28;20048;-83
2023/10/05 10:32:48;;;;;;;0.17;0.17;;;;;;;15.04;100.00;97481.13;5022272;28;20047;-83
2023/10/05 10:35:34;;;;;;;0.10;0.10;;;;;;;15.05;100.00;97484.63;5024857;28;20383;-83
2023/10/05 10:38:21;;;;;;;0.10;0.10;;;;;;;15.15;100.00;97481.22;5023632;28;20048;-84
2023/10/05 10:41:09;;;;;;;0.10;0.10;;;;;;;14.98;100.00;97481.31;5017988;28;20059;-82
2023/10/05 10:43:55;;;;;;;0.10;0.10;;;;;;;14.98;100.00;97482.13;5002682;28;22434;-83
2023/10/05 10:46:41;;;;;;;0.10;0.10;;;;;;;15.10;100.00;97479.31;5023330;28;20119;-83
2023/10/05 10:49:28;;;;;;;0.10;0.10;;;;;;;15.18;100.00;97495.03;5020773;28;20130;-83
2023/10/05 10:52:18;;;;;;;0.10;0.10;;;;;;;14.98;100.00;97500.19;5020284;28;20124;-83
2023/10/05 10:55:14;;;;;;;0.10;0.10;;;;;;;14.92;100.00;97485.81;5021842;28;20372;-83
2023/10/05 10:58:04;;;;;;;0.10;0.10;;;;;;;14.77;100.00;97489.13;5008800;28;20573;-83
2023/10/05 11:00:59;;;;;;;0.10;0.10;;;;;;;14.87;100.00;97487.66;5022910;28;20049;-83
2023/10/05 11:03:54;;;;;;;0.10;0.10;;;;;;;14.79;100.00;97490.78;5019179;28;20041;-83
2023/10/05 11:06:40;;;;;;;0.10;0.10;;;;;;;14.85;100.00;97484.38;5022424;28;20139;-83
2023/10/05 11:09:30;;;;;;;0.10;0.10;;;;;;;15.05;100.00;97473.84;5022053;28;20037;-83
2023/10/05 11:12:17;;;;;;;0.10;0.10;;;;;;;15.17;100.00;97474.50;5022275;28;20072;-84
2023/10/05 11:15:11;;;;;;;0.10;0.10;;;;;;;15.04;100.00;97474.91;5023427;28;20614;-83
2023/10/05 11:17:58;;;;;;;0.10;0.10;;;;;;;14.83;100.00;97468.47;5022208;28;20041;-83
2023/10/05 11:20:52;;;;;;;0.10;0.10;;;;;;;14.80;100.00;97460.91;5007396;28;20068;-83
2023/10/05 11:23:44;;;;;;;0.10;0.10;;;;;;;14.66;100.00;97451.56;5023775;28;20037;-83
2023/10/05 11:26:36;;;;;;;0.10;0.10;;;;;;;14.65;100.00;97445.34;5023061;28;20150;-83
2023/10/05 11:29:28;;;;;;;0.10;0.10;;;;;;;14.50;100.00;97447.84;5022040;28;20073;-83
2023/10/05 11:32:19;;;;;;;0.10;0.10;;;;;;;14.60;100.00;97439.91;5021576;28;20671;-83
2023/10/05 11:35:13;;;;;;;0.10;0.10;;;;;;;14.55;100.00;97444.38;5023910;28;20740;-83
2023/10/05 11:38:06;;;;;;;0.10;0.10;;;;;;;14.55;100.00;97439.00;5020598;28;20045;-84
2023/10/05 11:40:56;;;;;;;0.10;0.10;;;;;;;14.63;100.00;97441.25;5023288;28;20839;-83
2023/10/05 11:43:44;;;;;;;0.10;0.10;;;;;;;14.83;100.00;97446.09;5022327;28;21033;-85
2023/10/05 11:46:44;;;;;;;0.10;0.10;;;;;;;14.98;100.00;97444.38;5022663;28;20045;-83
2023/10/05 11:49:30;;;;;;;0.00;0.00;;;;;;;14.89;100.00;97437.00;5021171;28;20080;-83
2023/10/05 11:52:17;;;;;;;0.10;0.10;;;;;;;14.94;100.00;97439.75;5021308;28;20588;-84
2023/10/05 11:55:05;;;;;;;0.10;0.10;;;;;;;15.08;100.00;97438.28;5022578;28;20056;-83
2023/10/05 11:57:52;;;;;;;0.10;0.10;;;;;;;15.28;100.00;97438.50;5020619;28;20051;-83
2023/10/05 12:00:38;;;;;;;0.10;0.10;;;;;;;15.38;100.00;97450.47;5020616;28;20056;-84
2023/10/05 12:03:26;;;;;;;0.10;0.10;;;;;;;15.63;100.00;97450.72;5024760;28;20047;-83
2023/10/05 12:06:12;;;;;;;0.10;0.10;;;;;;;15.54;100.00;97442.25;5022722;28;20049;-84
2023/10/05 12:09:06;;;;;;;0.10;0.10;;;;;;;15.68;100.00;97447.25;5006617;28;20049;-84
2023/10/05 12:11:54;;;;;;;0.10;0.10;;;;;;;15.71;100.00;97446.75;5022610;28;20092;-84
2023/10/05 12:14:41;;;;;;;0.10;0.10;;;;;;;15.46;100.00;97439.22;5024506;28;20067;-84
2023/10/05 12:17:29;;;;;;;0.10;0.10;;;;;;;15.46;100.00;97452.69;5021574;28;20120;-84
2023/10/05 12:20:15;;;;;;;0.10;0.10;;;;;;;15.41;100.00;97434.59;5020189;28;20080;-84
2023/10/05 12:23:00;;;;;;;0.10;0.10;;;;;;;15.37;100.00;97427.25;5021674;28;20053;-84
2023/10/05 12:25:46;;;;;;;0.10;0.10;;;;;;;15.62;100.00;97424.81;5019251;28;20041;-83
2023/10/05 12:28:32;;;;;;;0.10;0.10;;;;;;;15.59;100.00;97422.63;5022305;28;20040;-84
2023/10/05 12:31:18;;;;;;;0.10;0.10;;;;;;;15.75;100.00;97416.31;5019126;28;20042;-84
2023/10/05 12:34:08;;;;;;;0.10;0.10;;;;;;;16.16;100.00;97416.56;5021252;28;20655;-84
2023/10/05 12:36:54;;;;;;;0.10;0.10;;;;;;;16.56;100.00;97421.38;5021728;28;20063;-83
2023/10/05 12:39:40;;;;;;;0.10;0.10;;;;;;;17.06;100.00;97427.28;5020613;28;20040;-83
2023/10/05 12:42:26;;;;;;;0.10;0.10;;;;;;;17.22;100.00;97426.25;5023078;28;20046;-84
2023/10/05 12:45:12;;;;;;;0.10;0.10;;;;;;;16.53;100.00;97419.22;5020953;28;20053;-83
2023/10/05 12:47:58;;;;;;;0.10;0.10;;;;;;;16.28;100.00;97438.81;5022187;28;20067;-81
2023/10/05 12:50:44;;;;;;;0.10;0.10;;;;;;;16.53;100.00;97442.72;5022275;28;20089;-84
2023/10/05 12:53:30;;;;;;;0.10;0.10;;;;;;;16.89;100.00;97436.44;5021182;28;20072;-84
2023/10/05 12:56:17;;;;;;;0.10;0.10;;;;;;;16.96;100.00;97442.41;5021242;28;20072;-84
2023/10/05 12:59:07;;;;;;;0.20;0.20;;;;;;;16.70;100.00;97436.06;5006409;28;21527;-83
2023/10/05 13:01:57;;;;;;;0.10;0.10;;;;;;;16.20;100.00;97450.09;5021511;28;20079;-84
2023/10/05 13:04:43;;;;;;;0.10;0.10;;;;;;;15.87;100.00;97446.63;5031922;28;20076;-84
2023/10/05 13:07:30;;;;;;;0.10;0.10;;;;;;;16.01;100.00;97446.97;5035488;28;20020;-83
2023/10/05 13:10:26;;;;;;;0.10;0.10;;;;;;;16.67;100.00;97441.97;5021591;28;20144;-83
2023/10/05 13:13:20;;;;;;;0.10;0.10;;;;;;;16.58;100.00;97453.56;5022454;28;21065;-84
2023/10/05 13:16:13;;;;;;;0.10;0.10;;;;;;;16.93;100.00;97464.53;5024950;28;20842;-83
2023/10/05 13:19:00;;;;;;;0.10;0.10;;;;;;;17.63;100.00;97445.22;5022750;28;20087;-83
2023/10/05 13:21:46;;;;;;;0.10;0.10;;;;;;;18.01;100.00;97449.31;5021202;28;20049;-84